sensor_id;sensor_type;location;lat;lon;timestamp;P1;durP1;ratioP1;P2;durP2;ratioP2
67715;SDS011;54508;43.238;25.306;2023-07-22T00:01:05;3.77;;;3.07;;
67715;SDS011;54508;43.238;25.306;2023-07-22T00:03:31;3.88;;;2.70;;
67715;SDS011;54508;43.238;25.306;2023-07-22T00:06:03;4.30;;;3.30;;
67715;SDS011;54508;43.238;25.306;2023-07-22T00:08:32;4.45;;;2.70;;
67715;SDS011;54508;43.238;25.306;2023-07-22T00:10:58;4.10;;;3.03;;
67715;SDS011;54508;43.238;25.306;2023-07-22T00:13:23;2.90;;;2.60;;
67715;SDS011;54508;43.238;25.306;2023-07-22T00:15:52;3.60;;;3.30;;
67715;SDS011;54508;43.238;25.306;2023-07-22T00:18:18;3.90;;;3.05;;
67715;SDS011;54508;43.238;25.306;2023-07-22T00:20:43;3.28;;;2.75;;
67715;SDS011;54508;43.238;25.306;2023-07-22T00:23:09;3.70;;;2.63;;
67715;SDS011;54508;43.238;25.306;2023-07-22T00:25:35;4.20;;;2.95;;
67715;SDS011;54508;43.238;25.306;2023-07-22T00:28:01;4.00;;;2.93;;
67715;SDS011;54508;43.238;25.306;2023-07-22T00:30:26;3.37;;;2.90;;
67715;SDS011;54508;43.238;25.306;2023-07-22T00:32:53;4.07;;;3.20;;
67715;SDS011;54508;43.238;25.306;2023-07-22T00:35:19;3.50;;;3.10;;
67715;SDS011;54508;43.238;25.306;2023-07-22T00:37:44;3.80;;;3.37;;
67715;SDS011;54508;43.238;25.306;2023-07-22T00:40:10;3.60;;;3.03;;
67715;SDS011;54508;43.238;25.306;2023-07-22T00:42:39;5.32;;;3.47;;
67715;SDS011;54508;43.238;25.306;2023-07-22T00:45:05;3.60;;;2.85;;
67715;SDS011;54508;43.238;25.306;2023-07-22T00:47:32;4.53;;;3.13;;
67715;SDS011;54508;43.238;25.306;2023-07-22T00:49:58;5.18;;;3.70;;
67715;SDS011;54508;43.238;25.306;2023-07-22T00:52:25;3.20;;;2.90;;
67715;SDS011;54508;43.238;25.306;2023-07-22T00:54:50;3.30;;;3.00;;
67715;SDS011;54508;43.238;25.306;2023-07-22T00:57:15;3.53;;;3.03;;
67715;SDS011;54508;43.238;25.306;2023-07-22T00:59:41;3.50;;;3.17;;
67715;SDS011;54508;43.238;25.306;2023-07-22T01:02:07;3.40;;;3.10;;
67715;SDS011;54508;43.238;25.306;2023-07-22T01:04:33;3.47;;;3.00;;
67715;SDS011;54508;43.238;25.306;2023-07-22T01:06:58;3.90;;;3.00;;
67715;SDS011;54508;43.238;25.306;2023-07-22T01:09:24;3.37;;;3.03;;
67715;SDS011;54508;43.238;25.306;2023-07-22T01:11:49;4.60;;;3.22;;
67715;SDS011;54508;43.238;25.306;2023-07-22T01:14:15;5.28;;;3.00;;
67715;SDS011;54508;43.238;25.306;2023-07-22T01:16:40;4.97;;;3.77;;
67715;SDS011;54508;43.238;25.306;2023-07-22T01:19:06;5.65;;;3.15;;
67715;SDS011;54508;43.238;25.306;2023-07-22T01:21:33;3.28;;;2.85;;
67715;SDS011;54508;43.238;25.306;2023-07-22T01:23:59;3.63;;;3.20;;
67715;SDS011;54508;43.238;25.306;2023-07-22T01:26:24;4.00;;;2.90;;
67715;SDS011;54508;43.238;25.306;2023-07-22T01:28:50;4.50;;;3.40;;
67715;SDS011;54508;43.238;25.306;2023-07-22T01:31:15;4.13;;;2.97;;
67715;SDS011;54508;43.238;25.306;2023-07-22T01:33:41;4.70;;;3.17;;
67715;SDS011;54508;43.238;25.306;2023-07-22T01:36:06;3.73;;;2.77;;
67715;SDS011;54508;43.238;25.306;2023-07-22T01:38:32;3.70;;;2.65;;
67715;SDS011;54508;43.238;25.306;2023-07-22T01:40:58;6.85;;;3.05;;
67715;SDS011;54508;43.238;25.306;2023-07-22T01:43:24;2.72;;;2.35;;
67715;SDS011;54508;43.238;25.306;2023-07-22T01:45:52;4.20;;;2.90;;
67715;SDS011;54508;43.238;25.306;2023-07-22T01:48:24;4.10;;;3.03;;
67715;SDS011;54508;43.238;25.306;2023-07-22T01:50:49;3.87;;;2.90;;
67715;SDS011;54508;43.238;25.306;2023-07-22T01:53:15;3.83;;;2.97;;
67715;SDS011;54508;43.238;25.306;2023-07-22T01:55:40;8.25;;;3.05;;
67715;SDS011;54508;43.238;25.306;2023-07-22T01:58:05;5.37;;;2.90;;
67715;SDS011;54508;43.238;25.306;2023-07-22T02:00:31;4.43;;;2.83;;
67715;SDS011;54508;43.238;25.306;2023-07-22T02:02:56;4.83;;;2.80;;
67715;SDS011;54508;43.238;25.306;2023-07-22T02:05:22;3.70;;;2.80;;
67715;SDS011;54508;43.238;25.306;2023-07-22T02:07:47;3.53;;;2.80;;
67715;SDS011;54508;43.238;25.306;2023-07-22T02:10:13;3.47;;;2.90;;
67715;SDS011;54508;43.238;25.306;2023-07-22T02:12:38;5.90;;;2.90;;
67715;SDS011;54508;43.238;25.306;2023-07-22T02:15:04;4.65;;;3.10;;
67715;SDS011;54508;43.238;25.306;2023-07-22T02:17:30;6.73;;;2.83;;
67715;SDS011;54508;43.238;25.306;2023-07-22T02:19:56;4.47;;;2.83;;
67715;SDS011;54508;43.238;25.306;2023-07-22T02:22:22;5.03;;;2.70;;
67715;SDS011;54508;43.238;25.306;2023-07-22T02:24:47;5.00;;;2.67;;
67715;SDS011;54508;43.238;25.306;2023-07-22T02:27:13;5.20;;;2.63;;
67715;SDS011;54508;43.238;25.306;2023-07-22T02:29:39;4.63;;;3.20;;
67715;SDS011;54508;43.238;25.306;2023-07-22T02:32:08;4.13;;;2.80;;
67715;SDS011;54508;43.238;25.306;2023-07-22T02:34:33;3.72;;;2.90;;
67715;SDS011;54508;43.238;25.306;2023-07-22T02:36:59;3.03;;;2.73;;
67715;SDS011;54508;43.238;25.306;2023-07-22T02:39:24;5.35;;;3.03;;
67715;SDS011;54508;43.238;25.306;2023-07-22T02:41:52;4.10;;;2.67;;
67715;SDS011;54508;43.238;25.306;2023-07-22T02:44:17;4.80;;;2.80;;
67715;SDS011;54508;43.238;25.306;2023-07-22T02:46:45;2.90;;;2.42;;
67715;SDS011;54508;43.238;25.306;2023-07-22T02:49:10;4.65;;;2.60;;
67715;SDS011;54508;43.238;25.306;2023-07-22T02:51:36;4.17;;;3.10;;
67715;SDS011;54508;43.238;25.306;2023-07-22T02:54:01;3.27;;;2.67;;
67715;SDS011;54508;43.238;25.306;2023-07-22T02:56:28;3.45;;;2.75;;
67715;SDS011;54508;43.238;25.306;2023-07-22T02:58:54;3.00;;;2.60;;
67715;SDS011;54508;43.238;25.306;2023-07-22T03:01:19;3.53;;;2.53;;
67715;SDS011;54508;43.238;25.306;2023-07-22T03:03:45;5.68;;;3.30;;
67715;SDS011;54508;43.238;25.306;2023-07-22T03:06:10;3.17;;;2.80;;
67715;SDS011;54508;43.238;25.306;2023-07-22T03:08:56;3.30;;;2.67;;
67715;SDS011;54508;43.238;25.306;2023-07-22T03:11:23;4.30;;;2.60;;
67715;SDS011;54508;43.238;25.306;2023-07-22T03:13:50;3.57;;;2.70;;
67715;SDS011;54508;43.238;25.306;2023-07-22T03:16:18;3.13;;;2.58;;
67715;SDS011;54508;43.238;25.306;2023-07-22T03:18:44;3.45;;;2.85;;
67715;SDS011;54508;43.238;25.306;2023-07-22T03:21:09;3.27;;;2.57;;
67715;SDS011;54508;43.238;25.306;2023-07-22T03:23:35;5.80;;;2.53;;
67715;SDS011;54508;43.238;25.306;2023-07-22T03:26:00;4.60;;;2.97;;
67715;SDS011;54508;43.238;25.306;2023-07-22T03:28:26;3.63;;;2.60;;
67715;SDS011;54508;43.238;25.306;2023-07-22T03:30:51;4.10;;;2.70;;
67715;SDS011;54508;43.238;25.306;2023-07-22T03:33:18;3.63;;;2.70;;
67715;SDS011;54508;43.238;25.306;2023-07-22T03:35:43;4.13;;;2.50;;
67715;SDS011;54508;43.238;25.306;2023-07-22T03:38:09;3.42;;;2.20;;
67715;SDS011;54508;43.238;25.306;2023-07-22T03:40:34;3.63;;;2.63;;
67715;SDS011;54508;43.238;25.306;2023-07-22T03:43:00;3.78;;;2.40;;
67715;SDS011;54508;43.238;25.306;2023-07-22T03:45:26;3.43;;;2.27;;
67715;SDS011;54508;43.238;25.306;2023-07-22T03:47:52;3.30;;;2.80;;
67715;SDS011;54508;43.238;25.306;2023-07-22T03:50:24;5.38;;;2.90;;
67715;SDS011;54508;43.238;25.306;2023-07-22T03:52:50;3.77;;;2.53;;
67715;SDS011;54508;43.238;25.306;2023-07-22T03:55:15;3.47;;;2.58;;
67715;SDS011;54508;43.238;25.306;2023-07-22T03:57:41;4.60;;;2.57;;
67715;SDS011;54508;43.238;25.306;2023-07-22T04:00:06;4.37;;;2.73;;
67715;SDS011;54508;43.238;25.306;2023-07-22T04:02:36;6.20;;;2.38;;
67715;SDS011;54508;43.238;25.306;2023-07-22T04:05:02;4.93;;;2.45;;
67715;SDS011;54508;43.238;25.306;2023-07-22T04:07:27;2.77;;;2.23;;
67715;SDS011;54508;43.238;25.306;2023-07-22T04:09:53;3.63;;;2.50;;
67715;SDS011;54508;43.238;25.306;2023-07-22T04:12:18;4.28;;;2.47;;
67715;SDS011;54508;43.238;25.306;2023-07-22T04:14:43;3.87;;;2.53;;
67715;SDS011;54508;43.238;25.306;2023-07-22T04:17:09;4.70;;;2.60;;
67715;SDS011;54508;43.238;25.306;2023-07-22T04:19:34;3.23;;;2.30;;
67715;SDS011;54508;43.238;25.306;2023-07-22T04:22:00;3.58;;;2.67;;
67715;SDS011;54508;43.238;25.306;2023-07-22T04:24:29;6.47;;;2.50;;
67715;SDS011;54508;43.238;25.306;2023-07-22T04:26:56;2.83;;;2.40;;
67715;SDS011;54508;43.238;25.306;2023-07-22T04:29:22;4.43;;;2.40;;
67715;SDS011;54508;43.238;25.306;2023-07-22T04:31:47;3.60;;;2.60;;
67715;SDS011;54508;43.238;25.306;2023-07-22T04:34:12;3.07;;;2.33;;
67715;SDS011;54508;43.238;25.306;2023-07-22T04:36:38;4.13;;;2.57;;
67715;SDS011;54508;43.238;25.306;2023-07-22T04:39:04;6.40;;;2.80;;
67715;SDS011;54508;43.238;25.306;2023-07-22T04:41:35;3.70;;;2.30;;
67715;SDS011;54508;43.238;25.306;2023-07-22T04:44:01;4.67;;;2.43;;
67715;SDS011;54508;43.238;25.306;2023-07-22T04:46:26;4.53;;;2.37;;
67715;SDS011;54508;43.238;25.306;2023-07-22T04:48:55;2.63;;;2.03;;
67715;SDS011;54508;43.238;25.306;2023-07-22T04:51:20;3.42;;;2.50;;
67715;SDS011;54508;43.238;25.306;2023-07-22T04:53:46;4.30;;;2.72;;
67715;SDS011;54508;43.238;25.306;2023-07-22T04:56:11;5.50;;;2.53;;
67715;SDS011;54508;43.238;25.306;2023-07-22T04:58:37;4.27;;;2.37;;
67715;SDS011;54508;43.238;25.306;2023-07-22T05:01:03;4.13;;;2.30;;
67715;SDS011;54508;43.238;25.306;2023-07-22T05:03:29;4.20;;;2.40;;
67715;SDS011;54508;43.238;25.306;2023-07-22T05:05:56;2.53;;;2.28;;
67715;SDS011;54508;43.238;25.306;2023-07-22T05:08:23;3.85;;;2.50;;
67715;SDS011;54508;43.238;25.306;2023-07-22T05:10:48;5.17;;;2.40;;
67715;SDS011;54508;43.238;25.306;2023-07-22T05:13:16;3.53;;;2.55;;
67715;SDS011;54508;43.238;25.306;2023-07-22T05:15:45;3.37;;;2.53;;
67715;SDS011;54508;43.238;25.306;2023-07-22T05:18:10;3.83;;;2.13;;
67715;SDS011;54508;43.238;25.306;2023-07-22T05:20:37;4.40;;;2.37;;
67715;SDS011;54508;43.238;25.306;2023-07-22T05:23:03;2.83;;;2.35;;
67715;SDS011;54508;43.238;25.306;2023-07-22T05:25:28;2.70;;;2.10;;
67715;SDS011;54508;43.238;25.306;2023-07-22T05:27:54;3.67;;;2.40;;
67715;SDS011;54508;43.238;25.306;2023-07-22T05:30:19;5.10;;;2.50;;
67715;SDS011;54508;43.238;25.306;2023-07-22T05:32:45;5.83;;;2.70;;
67715;SDS011;54508;43.238;25.306;2023-07-22T05:35:11;4.90;;;2.75;;
67715;SDS011;54508;43.238;25.306;2023-07-22T05:37:36;7.60;;;2.53;;
67715;SDS011;54508;43.238;25.306;2023-07-22T05:40:02;7.67;;;2.73;;
67715;SDS011;54508;43.238;25.306;2023-07-22T05:42:27;7.32;;;3.00;;
67715;SDS011;54508;43.238;25.306;2023-07-22T05:44:57;5.77;;;2.83;;
67715;SDS011;54508;43.238;25.306;2023-07-22T05:47:23;6.28;;;2.95;;
67715;SDS011;54508;43.238;25.306;2023-07-22T05:49:48;3.73;;;2.83;;
67715;SDS011;54508;43.238;25.306;2023-07-22T05:52:14;5.75;;;3.20;;
67715;SDS011;54508;43.238;25.306;2023-07-22T05:54:39;10.10;;;3.10;;
67715;SDS011;54508;43.238;25.306;2023-07-22T05:57:05;7.37;;;3.07;;
67715;SDS011;54508;43.238;25.306;2023-07-22T05:59:31;10.13;;;2.90;;
67715;SDS011;54508;43.238;25.306;2023-07-22T06:01:56;13.20;;;4.50;;
67715;SDS011;54508;43.238;25.306;2023-07-22T06:04:22;7.23;;;4.33;;
67715;SDS011;54508;43.238;25.306;2023-07-22T06:06:47;10.23;;;4.63;;
67715;SDS011;54508;43.238;25.306;2023-07-22T06:09:12;12.33;;;4.50;;
67715;SDS011;54508;43.238;25.306;2023-07-22T06:11:38;10.23;;;4.23;;
67715;SDS011;54508;43.238;25.306;2023-07-22T06:14:03;8.17;;;4.10;;
67715;SDS011;54508;43.238;25.306;2023-07-22T06:16:29;10.53;;;4.37;;
67715;SDS011;54508;43.238;25.306;2023-07-22T06:18:54;7.65;;;4.55;;
67715;SDS011;54508;43.238;25.306;2023-07-22T06:21:20;12.30;;;4.60;;
67715;SDS011;54508;43.238;25.306;2023-07-22T06:23:45;9.90;;;5.10;;
67715;SDS011;54508;43.238;25.306;2023-07-22T06:26:11;9.52;;;4.50;;
67715;SDS011;54508;43.238;25.306;2023-07-22T06:28:36;21.27;;;5.40;;
67715;SDS011;54508;43.238;25.306;2023-07-22T06:31:02;7.10;;;4.43;;
67715;SDS011;54508;43.238;25.306;2023-07-22T06:33:27;16.37;;;5.23;;
67715;SDS011;54508;43.238;25.306;2023-07-22T06:35:53;11.02;;;3.97;;
67715;SDS011;54508;43.238;25.306;2023-07-22T06:38:18;6.95;;;4.45;;
67715;SDS011;54508;43.238;25.306;2023-07-22T06:40:43;7.53;;;4.13;;
67715;SDS011;54508;43.238;25.306;2023-07-22T06:43:09;9.10;;;4.70;;
67715;SDS011;54508;43.238;25.306;2023-07-22T06:45:34;13.00;;;4.23;;
67715;SDS011;54508;43.238;25.306;2023-07-22T06:48:00;9.20;;;4.45;;
67715;SDS011;54508;43.238;25.306;2023-07-22T06:50:25;6.65;;;4.18;;
67715;SDS011;54508;43.238;25.306;2023-07-22T06:52:51;10.97;;;4.17;;
67715;SDS011;54508;43.238;25.306;2023-07-22T06:55:16;10.07;;;4.40;;
67715;SDS011;54508;43.238;25.306;2023-07-22T06:57:41;11.07;;;4.00;;
67715;SDS011;54508;43.238;25.306;2023-07-22T07:00:07;9.13;;;3.78;;
67715;SDS011;54508;43.238;25.306;2023-07-22T07:02:35;9.18;;;4.20;;
67715;SDS011;54508;43.238;25.306;2023-07-22T07:05:01;6.82;;;4.50;;
67715;SDS011;54508;43.238;25.306;2023-07-22T07:07:26;6.50;;;3.78;;
67715;SDS011;54508;43.238;25.306;2023-07-22T07:09:52;8.20;;;3.83;;
67715;SDS011;54508;43.238;25.306;2023-07-22T07:12:17;8.70;;;4.10;;
67715;SDS011;54508;43.238;25.306;2023-07-22T07:14:42;6.13;;;3.73;;
67715;SDS011;54508;43.238;25.306;2023-07-22T07:17:08;13.07;;;4.10;;
67715;SDS011;54508;43.238;25.306;2023-07-22T07:19:34;8.27;;;3.97;;
67715;SDS011;54508;43.238;25.306;2023-07-22T07:21:59;5.50;;;3.93;;
67715;SDS011;54508;43.238;25.306;2023-07-22T07:24:24;10.43;;;3.47;;
67715;SDS011;54508;43.238;25.306;2023-07-22T07:26:52;8.02;;;3.88;;
67715;SDS011;54508;43.238;25.306;2023-07-22T07:29:17;9.60;;;5.57;;
67715;SDS011;54508;43.238;25.306;2023-07-22T07:31:43;7.97;;;5.35;;
67715;SDS011;54508;43.238;25.306;2023-07-22T07:34:08;11.63;;;5.47;;
67715;SDS011;54508;43.238;25.306;2023-07-22T07:36:34;9.70;;;4.87;;
67715;SDS011;54508;43.238;25.306;2023-07-22T07:38:59;5.80;;;5.20;;
67715;SDS011;54508;43.238;25.306;2023-07-22T07:41:24;5.40;;;4.43;;
67715;SDS011;54508;43.238;25.306;2023-07-22T07:43:50;10.85;;;5.47;;
67715;SDS011;54508;43.238;25.306;2023-07-22T07:46:19;10.07;;;5.10;;
67715;SDS011;54508;43.238;25.306;2023-07-22T07:48:55;10.15;;;5.13;;
67715;SDS011;54508;43.238;25.306;2023-07-22T07:51:23;8.95;;;4.85;;
67715;SDS011;54508;43.238;25.306;2023-07-22T07:53:51;8.20;;;4.80;;
67715;SDS011;54508;43.238;25.306;2023-07-22T07:56:17;10.73;;;4.60;;
67715;SDS011;54508;43.238;25.306;2023-07-22T07:58:43;8.88;;;4.97;;
67715;SDS011;54508;43.238;25.306;2023-07-22T08:01:10;10.50;;;3.93;;
67715;SDS011;54508;43.238;25.306;2023-07-22T08:03:35;8.18;;;4.07;;
67715;SDS011;54508;43.238;25.306;2023-07-22T08:06:02;5.47;;;4.35;;
67715;SDS011;54508;43.238;25.306;2023-07-22T08:08:28;6.33;;;4.10;;
67715;SDS011;54508;43.238;25.306;2023-07-22T08:10:57;7.53;;;4.38;;
67715;SDS011;54508;43.238;25.306;2023-07-22T08:13:44;11.35;;;4.85;;
67715;SDS011;54508;43.238;25.306;2023-07-22T08:16:10;9.57;;;5.10;;
67715;SDS011;54508;43.238;25.306;2023-07-22T08:18:37;8.25;;;5.07;;
67715;SDS011;54508;43.238;25.306;2023-07-22T08:21:03;7.75;;;5.00;;
67715;SDS011;54508;43.238;25.306;2023-07-22T08:23:29;8.10;;;4.60;;
67715;SDS011;54508;43.238;25.306;2023-07-22T08:25:55;9.88;;;4.20;;
67715;SDS011;54508;43.238;25.306;2023-07-22T08:28:21;7.90;;;4.15;;
67715;SDS011;54508;43.238;25.306;2023-07-22T08:30:49;9.10;;;4.50;;
67715;SDS011;54508;43.238;25.306;2023-07-22T08:33:15;8.43;;;4.20;;
67715;SDS011;54508;43.238;25.306;2023-07-22T08:35:43;7.32;;;4.38;;
67715;SDS011;54508;43.238;25.306;2023-07-22T08:38:09;8.13;;;4.35;;
67715;SDS011;54508;43.238;25.306;2023-07-22T08:40:34;10.17;;;4.67;;
67715;SDS011;54508;43.238;25.306;2023-07-22T08:43:04;6.43;;;3.42;;
67715;SDS011;54508;43.238;25.306;2023-07-22T08:45:32;8.20;;;3.92;;
67715;SDS011;54508;43.238;25.306;2023-07-22T08:47:59;5.10;;;3.75;;
67715;SDS011;54508;43.238;25.306;2023-07-22T08:50:30;5.53;;;3.65;;
67715;SDS011;54508;43.238;25.306;2023-07-22T08:52:55;6.03;;;3.53;;
67715;SDS011;54508;43.238;25.306;2023-07-22T08:55:25;7.57;;;3.95;;
67715;SDS011;54508;43.238;25.306;2023-07-22T08:57:50;6.90;;;3.75;;
67715;SDS011;54508;43.238;25.306;2023-07-22T09:00:16;8.80;;;3.70;;
67715;SDS011;54508;43.238;25.306;2023-07-22T09:02:43;5.90;;;3.13;;
67715;SDS011;54508;43.238;25.306;2023-07-22T09:05:09;6.00;;;2.97;;
67715;SDS011;54508;43.238;25.306;2023-07-22T09:07:38;7.00;;;3.85;;
67715;SDS011;54508;43.238;25.306;2023-07-22T09:10:04;7.43;;;3.80;;
67715;SDS011;54508;43.238;25.306;2023-07-22T09:12:33;8.43;;;3.90;;
67715;SDS011;54508;43.238;25.306;2023-07-22T09:15:05;6.53;;;3.17;;
67715;SDS011;54508;43.238;25.306;2023-07-22T09:17:33;4.85;;;3.25;;
67715;SDS011;54508;43.238;25.306;2023-07-22T09:19:58;6.10;;;2.95;;
67715;SDS011;54508;43.238;25.306;2023-07-22T09:22:24;5.23;;;3.37;;
67715;SDS011;54508;43.238;25.306;2023-07-22T09:24:51;4.78;;;3.10;;
67715;SDS011;54508;43.238;25.306;2023-07-22T09:27:27;5.30;;;3.17;;
67715;SDS011;54508;43.238;25.306;2023-07-22T09:29:57;5.80;;;3.50;;
67715;SDS011;54508;43.238;25.306;2023-07-22T09:32:34;5.78;;;3.08;;
67715;SDS011;54508;43.238;25.306;2023-07-22T09:35:00;5.80;;;3.30;;
67715;SDS011;54508;43.238;25.306;2023-07-22T09:37:35;4.07;;;2.67;;
67715;SDS011;54508;43.238;25.306;2023-07-22T09:40:04;4.07;;;2.87;;
67715;SDS011;54508;43.238;25.306;2023-07-22T09:43:00;4.15;;;2.95;;
67715;SDS011;54508;43.238;25.306;2023-07-22T09:45:30;4.13;;;3.08;;
67715;SDS011;54508;43.238;25.306;2023-07-22T09:47:57;5.70;;;2.95;;
67715;SDS011;54508;43.238;25.306;2023-07-22T09:50:23;4.15;;;2.90;;
67715;SDS011;54508;43.238;25.306;2023-07-22T09:52:55;3.50;;;2.80;;
67715;SDS011;54508;43.238;25.306;2023-07-22T09:55:28;3.72;;;2.90;;
67715;SDS011;54508;43.238;25.306;2023-07-22T10:00:21;4.78;;;2.83;;
67715;SDS011;54508;43.238;25.306;2023-07-22T10:02:50;4.07;;;2.92;;
67715;SDS011;54508;43.238;25.306;2023-07-22T10:05:17;4.10;;;2.60;;
67715;SDS011;54508;43.238;25.306;2023-07-22T10:07:45;6.60;;;2.53;;
67715;SDS011;54508;43.238;25.306;2023-07-22T10:10:15;3.30;;;2.95;;
67715;SDS011;54508;43.238;25.306;2023-07-22T10:12:41;2.90;;;2.40;;
67715;SDS011;54508;43.238;25.306;2023-07-22T10:15:11;4.57;;;2.67;;
67715;SDS011;54508;43.238;25.306;2023-07-22T10:17:41;7.07;;;2.50;;
67715;SDS011;54508;43.238;25.306;2023-07-22T10:20:08;4.80;;;2.75;;
67715;SDS011;54508;43.238;25.306;2023-07-22T10:22:40;3.70;;;2.92;;
67715;SDS011;54508;43.238;25.306;2023-07-22T10:25:12;3.42;;;2.53;;
67715;SDS011;54508;43.238;25.306;2023-07-22T10:27:40;6.38;;;3.50;;
67715;SDS011;54508;43.238;25.306;2023-07-22T10:30:07;6.57;;;2.80;;
67715;SDS011;54508;43.238;25.306;2023-07-22T10:32:38;5.05;;;3.22;;
67715;SDS011;54508;43.238;25.306;2023-07-22T10:37:55;8.95;;;3.17;;
67715;SDS011;54508;43.238;25.306;2023-07-22T10:43:00;5.68;;;2.80;;
67715;SDS011;54508;43.238;25.306;2023-07-22T10:45:32;4.40;;;2.90;;
67715;SDS011;54508;43.238;25.306;2023-07-22T10:50:43;5.82;;;3.03;;
67715;SDS011;54508;43.238;25.306;2023-07-22T10:58:54;9.50;;;2.80;;
67715;SDS011;54508;43.238;25.306;2023-07-22T11:11:52;7.40;;;2.70;;
67715;SDS011;54508;43.238;25.306;2023-07-22T11:14:28;6.43;;;2.92;;
67715;SDS011;54508;43.238;25.306;2023-07-22T11:16:59;6.30;;;2.92;;
67715;SDS011;54508;43.238;25.306;2023-07-22T11:19:26;3.15;;;2.42;;
67715;SDS011;54508;43.238;25.306;2023-07-22T11:21:52;4.23;;;2.30;;
67715;SDS011;54508;43.238;25.306;2023-07-22T11:24:19;3.08;;;2.38;;
67715;SDS011;54508;43.238;25.306;2023-07-22T11:26:46;5.15;;;2.67;;
67715;SDS011;54508;43.238;25.306;2023-07-22T11:29:12;3.58;;;2.38;;
67715;SDS011;54508;43.238;25.306;2023-07-22T11:31:39;6.70;;;2.70;;
67715;SDS011;54508;43.238;25.306;2023-07-22T11:34:10;4.07;;;2.37;;
67715;SDS011;54508;43.238;25.306;2023-07-22T11:36:40;3.08;;;2.10;;
67715;SDS011;54508;43.238;25.306;2023-07-22T11:39:07;6.40;;;2.92;;
67715;SDS011;54508;43.238;25.306;2023-07-22T11:41:37;5.00;;;2.42;;
67715;SDS011;54508;43.238;25.306;2023-07-22T11:44:04;3.90;;;2.35;;
67715;SDS011;54508;43.238;25.306;2023-07-22T11:49:32;4.68;;;2.60;;
67715;SDS011;54508;43.238;25.306;2023-07-22T11:52:00;3.70;;;2.30;;
67715;SDS011;54508;43.238;25.306;2023-07-22T11:54:29;3.83;;;2.35;;
67715;SDS011;54508;43.238;25.306;2023-07-22T11:56:56;3.45;;;2.15;;
67715;SDS011;54508;43.238;25.306;2023-07-22T11:59:38;4.87;;;2.87;;
67715;SDS011;54508;43.238;25.306;2023-07-22T12:02:04;4.25;;;2.42;;
67715;SDS011;54508;43.238;25.306;2023-07-22T12:04:31;4.23;;;2.47;;
67715;SDS011;54508;43.238;25.306;2023-07-22T12:06:57;3.80;;;2.08;;
67715;SDS011;54508;43.238;25.306;2023-07-22T12:09:23;3.17;;;2.40;;
67715;SDS011;54508;43.238;25.306;2023-07-22T12:11:54;3.93;;;2.50;;
67715;SDS011;54508;43.238;25.306;2023-07-22T12:14:21;3.50;;;2.30;;
67715;SDS011;54508;43.238;25.306;2023-07-22T12:16:47;2.33;;;2.00;;
67715;SDS011;54508;43.238;25.306;2023-07-22T12:19:12;5.17;;;2.60;;
67715;SDS011;54508;43.238;25.306;2023-07-22T12:21:39;2.73;;;2.10;;
67715;SDS011;54508;43.238;25.306;2023-07-22T12:24:05;3.15;;;2.00;;
67715;SDS011;54508;43.238;25.306;2023-07-22T12:26:41;2.67;;;2.10;;
67715;SDS011;54508;43.238;25.306;2023-07-22T12:29:29;4.82;;;2.20;;
67715;SDS011;54508;43.238;25.306;2023-07-22T12:31:55;2.88;;;1.92;;
67715;SDS011;54508;43.238;25.306;2023-07-22T12:34:21;3.10;;;2.20;;
67715;SDS011;54508;43.238;25.306;2023-07-22T12:36:46;2.70;;;2.20;;
67715;SDS011;54508;43.238;25.306;2023-07-22T12:39:12;4.00;;;2.53;;
67715;SDS011;54508;43.238;25.306;2023-07-22T12:41:37;3.40;;;2.35;;
67715;SDS011;54508;43.238;25.306;2023-07-22T12:44:03;2.53;;;2.13;;
67715;SDS011;54508;43.238;25.306;2023-07-22T12:46:29;3.67;;;2.50;;
67715;SDS011;54508;43.238;25.306;2023-07-22T12:48:54;3.03;;;2.30;;
67715;SDS011;54508;43.238;25.306;2023-07-22T12:51:20;3.33;;;1.97;;
67715;SDS011;54508;43.238;25.306;2023-07-22T12:53:45;3.17;;;2.20;;
67715;SDS011;54508;43.238;25.306;2023-07-22T12:56:10;4.03;;;2.50;;
67715;SDS011;54508;43.238;25.306;2023-07-22T12:58:36;3.50;;;2.20;;
67715;SDS011;54508;43.238;25.306;2023-07-22T13:01:01;2.83;;;2.60;;
67715;SDS011;54508;43.238;25.306;2023-07-22T13:03:27;2.53;;;2.10;;
67715;SDS011;54508;43.238;25.306;2023-07-22T13:05:52;3.17;;;2.25;;
67715;SDS011;54508;43.238;25.306;2023-07-22T13:08:18;2.70;;;2.22;;
67715;SDS011;54508;43.238;25.306;2023-07-22T13:10:43;2.77;;;2.30;;
67715;SDS011;54508;43.238;25.306;2023-07-22T13:13:10;3.05;;;2.20;;
67715;SDS011;54508;43.238;25.306;2023-07-22T13:15:35;5.67;;;2.57;;
67715;SDS011;54508;43.238;25.306;2023-07-22T13:18:01;3.92;;;2.38;;
67715;SDS011;54508;43.238;25.306;2023-07-22T13:20:27;4.95;;;2.08;;
67715;SDS011;54508;43.238;25.306;2023-07-22T13:22:56;3.05;;;2.38;;
67715;SDS011;54508;43.238;25.306;2023-07-22T13:25:26;3.75;;;2.20;;
67715;SDS011;54508;43.238;25.306;2023-07-22T13:27:52;3.70;;;2.30;;
67715;SDS011;54508;43.238;25.306;2023-07-22T13:30:17;5.07;;;2.30;;
67715;SDS011;54508;43.238;25.306;2023-07-22T13:32:43;4.45;;;2.50;;
67715;SDS011;54508;43.238;25.306;2023-07-22T13:35:08;3.27;;;2.13;;
67715;SDS011;54508;43.238;25.306;2023-07-22T13:37:35;3.38;;;2.10;;
67715;SDS011;54508;43.238;25.306;2023-07-22T13:40:01;3.47;;;2.40;;
67715;SDS011;54508;43.238;25.306;2023-07-22T13:42:26;3.05;;;2.17;;
67715;SDS011;54508;43.238;25.306;2023-07-22T13:44:52;2.80;;;2.17;;
67715;SDS011;54508;43.238;25.306;2023-07-22T13:47:17;3.10;;;2.30;;
67715;SDS011;54508;43.238;25.306;2023-07-22T13:49:42;4.07;;;2.47;;
67715;SDS011;54508;43.238;25.306;2023-07-22T13:52:17;3.10;;;2.08;;
67715;SDS011;54508;43.238;25.306;2023-07-22T13:54:45;3.08;;;2.40;;
67715;SDS011;54508;43.238;25.306;2023-07-22T13:57:11;2.70;;;2.40;;
67715;SDS011;54508;43.238;25.306;2023-07-22T13:59:37;3.45;;;2.40;;
67715;SDS011;54508;43.238;25.306;2023-07-22T14:02:02;2.90;;;2.10;;
67715;SDS011;54508;43.238;25.306;2023-07-22T14:04:28;3.43;;;2.47;;
67715;SDS011;54508;43.238;25.306;2023-07-22T14:06:54;3.83;;;2.50;;
67715;SDS011;54508;43.238;25.306;2023-07-22T14:09:19;2.77;;;2.33;;
67715;SDS011;54508;43.238;25.306;2023-07-22T14:11:45;2.40;;;1.97;;
67715;SDS011;54508;43.238;25.306;2023-07-22T14:14:10;3.43;;;2.40;;
67715;SDS011;54508;43.238;25.306;2023-07-22T14:16:35;3.58;;;2.08;;
67715;SDS011;54508;43.238;25.306;2023-07-22T14:19:01;2.70;;;2.00;;
67715;SDS011;54508;43.238;25.306;2023-07-22T14:21:26;3.37;;;1.90;;
67715;SDS011;54508;43.238;25.306;2023-07-22T14:23:55;3.05;;;2.03;;
67715;SDS011;54508;43.238;25.306;2023-07-22T14:26:20;3.73;;;2.57;;
67715;SDS011;54508;43.238;25.306;2023-07-22T14:28:46;3.07;;;2.40;;
67715;SDS011;54508;43.238;25.306;2023-07-22T14:31:13;2.50;;;2.08;;
67715;SDS011;54508;43.238;25.306;2023-07-22T14:33:39;4.83;;;2.10;;
67715;SDS011;54508;43.238;25.306;2023-07-22T14:36:04;2.65;;;2.08;;
67715;SDS011;54508;43.238;25.306;2023-07-22T14:38:29;3.43;;;2.07;;
67715;SDS011;54508;43.238;25.306;2023-07-22T14:40:55;3.63;;;2.20;;
67715;SDS011;54508;43.238;25.306;2023-07-22T14:43:20;3.13;;;2.00;;
67715;SDS011;54508;43.238;25.306;2023-07-22T14:45:46;3.25;;;2.10;;
67715;SDS011;54508;43.238;25.306;2023-07-22T14:48:11;3.50;;;2.33;;
67715;SDS011;54508;43.238;25.306;2023-07-22T14:50:37;2.57;;;2.10;;
67715;SDS011;54508;43.238;25.306;2023-07-22T14:53:02;2.80;;;2.10;;
67715;SDS011;54508;43.238;25.306;2023-07-22T14:55:28;3.17;;;2.40;;
67715;SDS011;54508;43.238;25.306;2023-07-22T14:57:53;2.70;;;2.10;;
67715;SDS011;54508;43.238;25.306;2023-07-22T15:00:19;2.30;;;2.03;;